Time;durP1;ratioP1;P1;durP2;ratioP2;P2;SDS_P1;SDS_P2;PMS_P1;PMS_P2;Temp;Humidity;BMP_temperature;BMP_pressure;BME280_temperature;BME280_humidity;BME280_pressure;Samples;Min_cycle;Max_cycle;Signal;HPM_P1;HPM_P2
2023/07/05 00:00:21;;;;;;;1.13;1.03;;;15.60;99.90;;;;;;5034990;28;20413;-70
2023/07/05 00:02:50;;;;;;;0.50;0.50;;;15.60;99.90;;;;;;5034925;28;20216;-69
2023/07/05 00:05:15;;;;;;;0.50;0.50;;;15.60;99.90;;;;;;5034883;28;20185;-70
2023/07/05 00:07:41;;;;;;;0.43;0.43;;;15.60;99.90;;;;;;5034639;28;20429;-70
2023/07/05 00:10:08;;;;;;;0.40;0.40;;;15.70;99.90;;;;;;5034569;28;20203;-71
2023/07/05 00:12:34;;;;;;;0.60;0.60;;;15.70;99.90;;;;;;5034466;28;20252;-70
2023/07/05 00:15:00;;;;;;;1.70;1.60;;;15.80;99.90;;;;;;5034649;28;20840;-70
2023/07/05 00:17:25;;;;;;;2.00;0.90;;;15.90;99.90;;;;;;5034566;28;20245;-70
2023/07/05 00:19:52;;;;;;;0.50;0.50;;;15.90;99.90;;;;;;5034446;28;20174;-70
2023/07/05 00:22:19;;;;;;;0.70;0.60;;;15.90;99.90;;;;;;5034269;28;20690;-70
2023/07/05 00:24:45;;;;;;;1.70;0.90;;;16.00;99.90;;;;;;5034364;28;20405;-69
2023/07/05 00:27:12;;;;;;;0.93;0.93;;;16.00;99.90;;;;;;5034373;28;20531;-70
2023/07/05 00:29:37;;;;;;;1.53;1.03;;;15.90;99.90;;;;;;5033973;28;20778;-69
2023/07/05 00:32:03;;;;;;;1.00;1.00;;;15.90;99.90;;;;;;5034088;28;20471;-70
2023/07/05 00:34:29;;;;;;;0.40;0.40;;;15.90;99.90;;;;;;5034338;28;20174;-71
2023/07/05 00:36:54;;;;;;;0.50;0.50;;;15.90;99.90;;;;;;5034242;28;20499;-70
2023/07/05 00:39:20;;;;;;;0.60;0.60;;;15.90;99.90;;;;;;5034475;28;20258;-70
2023/07/05 00:41:46;;;;;;;0.40;0.40;;;15.90;99.90;;;;;;5034003;28;20181;-69
2023/07/05 00:44:13;;;;;;;1.00;1.00;;;16.10;99.90;;;;;;5033993;28;20178;-69
2023/07/05 00:46:45;;;;;;;0.97;0.73;;;16.10;99.90;;;;;;5033899;28;20245;-70
2023/07/05 00:49:18;;;;;;;1.27;0.93;;;16.10;99.90;;;;;;5034063;28;20453;-70
2023/07/05 00:52:00;;;;;;;1.60;0.80;;;16.20;99.90;;;;;;5034007;28;20406;-70
2023/07/05 00:54:35;;;;;;;1.23;0.60;;;16.20;99.90;;;;;;5034079;28;20768;-71
2023/07/05 00:57:07;;;;;;;0.93;0.93;;;16.20;99.90;;;;;;5033849;28;20512;-69
2023/07/05 00:59:39;;;;;;;0.40;0.40;;;16.20;99.90;;;;;;5033736;28;20390;-70
2023/07/05 01:02:05;;;;;;;0.50;0.50;;;16.20;99.90;;;;;;5033715;28;20768;-70
2023/07/05 01:04:34;;;;;;;1.07;0.80;;;16.30;99.90;;;;;;5032504;28;20507;-69
2023/07/05 01:07:01;;;;;;;0.40;0.40;;;16.30;99.90;;;;;;5033692;28;20457;-70
2023/07/05 01:09:26;;;;;;;1.60;1.50;;;16.30;99.90;;;;;;5033775;28;20461;-70
2023/07/05 01:12:03;;;;;;;0.67;0.60;;;16.30;99.90;;;;;;5033403;28;20477;-71
2023/07/05 01:14:32;;;;;;;1.13;1.03;;;16.20;99.90;;;;;;5033700;28;20264;-70
2023/07/05 01:17:26;;;;;;;0.40;0.40;;;16.10;99.90;;;;;;5033560;28;20429;-70
2023/07/05 01:20:16;;;;;;;0.77;0.77;;;16.10;99.90;;;;;;5033676;28;20854;-69
2023/07/05 01:23:03;;;;;;;1.03;0.50;;;16.10;99.90;;;;;;5033278;28;20881;-70
2023/07/05 01:25:48;;;;;;;0.77;0.67;;;16.10;99.90;;;;;;5033548;28;20812;-69
2023/07/05 01:28:48;;;;;;;0.73;0.63;;;16.20;99.90;;;;;;5033349;28;20433;-70
2023/07/05 01:31:49;;;;;;;0.80;0.73;;;16.20;99.90;;;;;;5001069;28;20437;-69
2023/07/05 01:34:50;;;;;;;0.60;0.60;;;16.30;99.90;;;;;;5033732;28;20390;-69
2023/07/05 01:37:40;;;;;;;1.07;0.60;;;16.30;99.90;;;;;;5033361;28;20449;-70
2023/07/05 01:40:21;;;;;;;1.70;1.23;;;16.30;99.90;;;;;;5033225;28;20407;-70
2023/07/05 01:42:50;;;;;;;0.80;0.80;;;16.30;99.90;;;;;;5037263;28;20409;-70
2023/07/05 01:45:18;;;;;;;0.50;0.50;;;16.30;99.90;;;;;;5037642;28;20451;-70
2023/07/05 01:47:56;;;;;;;0.83;0.83;;;16.50;99.90;;;;;;5037314;28;20463;-70
2023/07/05 01:50:42;;;;;;;0.80;0.80;;;16.30;99.90;;;;;;5037431;28;20453;-70
2023/07/05 01:53:26;;;;;;;0.60;0.60;;;16.40;99.90;;;;;;5037374;28;20452;-70
2023/07/05 01:56:03;;;;;;;0.53;0.53;;;16.40;99.90;;;;;;5037983;28;20397;-70
2023/07/05 01:58:32;;;;;;;0.50;0.50;;;16.40;99.90;;;;;;5037204;28;20433;-71
2023/07/05 02:01:00;;;;;;;1.00;1.00;;;16.30;99.90;;;;;;5037330;28;20417;-70
2023/07/05 02:03:26;;;;;;;1.53;1.43;;;16.30;99.90;;;;;;5037243;28;20412;-71
2023/07/05 02:05:53;;;;;;;1.03;1.03;;;16.30;99.90;;;;;;5037062;28;20412;-70
2023/07/05 02:08:24;;;;;;;1.07;0.53;;;16.30;99.90;;;;;;5036897;28;20543;-70
2023/07/05 02:10:50;;;;;;;1.10;0.93;;;16.40;99.90;;;;;;5036974;28;20753;-70
2023/07/05 02:13:17;;;;;;;0.63;0.63;;;16.40;99.90;;;;;;5036866;28;20410;-70
2023/07/05 02:15:43;;;;;;;1.27;1.00;;;16.40;99.90;;;;;;5036898;28;20167;-70
2023/07/05 02:18:08;;;;;;;1.10;0.93;;;16.30;99.90;;;;;;5036718;28;20440;-69
2023/07/05 02:20:35;;;;;;;0.93;0.87;;;16.20;99.90;;;;;;5036935;28;20405;-70
2023/07/05 02:23:02;;;;;;;0.50;0.50;;;16.20;99.90;;;;;;5036506;28;20542;-70
2023/07/05 02:25:28;;;;;;;1.47;1.37;;;16.30;99.90;;;;;;5036697;28;20409;-70
2023/07/05 02:27:53;;;;;;;0.63;0.63;;;16.30;99.90;;;;;;5036634;28;20464;-71
2023/07/05 02:30:20;;;;;;;1.30;1.20;;;16.10;99.90;;;;;;5036241;28;20207;-70
2023/07/05 02:32:45;;;;;;;1.73;1.63;;;16.40;99.90;;;;;;5036112;28;20167;-70
2023/07/05 02:35:11;;;;;;;0.90;0.77;;;16.50;99.90;;;;;;5036082;28;20489;-69
2023/07/05 02:37:36;;;;;;;0.97;0.97;;;16.50;99.90;;;;;;5036294;28;20190;-70
2023/07/05 02:40:03;;;;;;;1.23;1.13;;;16.50;99.90;;;;;;5036590;28;20205;-69
2023/07/05 02:42:29;;;;;;;1.13;1.03;;;16.50;99.90;;;;;;5036061;28;20182;-71
2023/07/05 02:44:57;;;;;;;0.40;0.40;;;16.40;99.90;;;;;;5036443;28;20413;-70
2023/07/05 02:47:23;;;;;;;0.77;0.77;;;16.40;99.90;;;;;;5036058;28;20297;-69
2023/07/05 02:49:49;;;;;;;7.00;0.83;;;16.50;99.90;;;;;;5036077;28;20536;-70
2023/07/05 02:52:15;;;;;;;0.60;0.60;;;16.50;99.90;;;;;;5034486;28;20175;-70
2023/07/05 02:54:41;;;;;;;0.80;0.80;;;16.50;99.90;;;;;;5036356;28;20170;-70
2023/07/05 02:57:06;;;;;;;1.00;0.77;;;16.50;99.90;;;;;;5036134;28;20429;-70
2023/07/05 02:59:33;;;;;;;0.80;0.80;;;16.60;99.90;;;;;;5036072;28;20413;-70
2023/07/05 03:01:59;;;;;;;0.47;0.47;;;16.50;99.90;;;;;;5035966;28;20341;-70
2023/07/05 03:04:26;;;;;;;2.00;1.47;;;16.50;99.90;;;;;;5035918;28;20894;-70
2023/07/05 03:06:51;;;;;;;0.50;0.50;;;16.60;99.90;;;;;;5035823;28;20436;-70
2023/07/05 03:09:18;;;;;;;0.60;0.60;;;16.70;99.90;;;;;;5035852;28;20460;-70
2023/07/05 03:11:49;;;;;;;0.60;0.60;;;16.60;99.90;;;;;;5035803;28;20198;-70
2023/07/05 03:14:15;;;;;;;0.50;0.50;;;16.60;99.90;;;;;;5034085;28;20445;-70
2023/07/05 03:16:40;;;;;;;0.30;0.30;;;16.50;99.90;;;;;;5035704;28;20464;-69
2023/07/05 03:19:06;;;;;;;1.33;0.43;;;16.70;99.90;;;;;;5035595;28;20179;-70
2023/07/05 03:21:31;;;;;;;2.47;1.47;;;16.70;99.90;;;;;;5035667;28;20171;-70
2023/07/05 03:23:57;;;;;;;0.30;0.30;;;16.60;99.90;;;;;;5035888;28;20697;-70
2023/07/05 03:26:23;;;;;;;0.70;0.63;;;16.40;99.90;;;;;;5035694;28;20526;-70
2023/07/05 03:28:48;;;;;;;0.70;0.70;;;16.70;99.90;;;;;;5035376;28;20252;-70
2023/07/05 03:31:16;;;;;;;0.90;0.90;;;16.60;99.90;;;;;;5035298;28;20175;-69
2023/07/05 03:33:43;;;;;;;0.57;0.57;;;16.60;99.90;;;;;;5035672;28;20198;-70
2023/07/05 03:36:14;;;;;;;1.03;1.03;;;16.90;99.90;;;;;;5035297;28;20902;-70
2023/07/05 03:38:40;;;;;;;1.33;1.13;;;16.60;99.90;;;;;;5035305;28;20425;-69
2023/07/05 03:41:16;;;;;;;1.07;1.07;;;16.70;99.90;;;;;;5035247;28;20431;-70
2023/07/05 03:43:43;;;;;;;0.40;0.40;;;16.70;99.90;;;;;;5035002;28;20897;-70
2023/07/05 03:46:14;;;;;;;1.17;1.17;;;16.60;99.90;;;;;;5033543;28;20470;-70
2023/07/05 03:48:44;;;;;;;1.07;1.07;;;16.80;99.90;;;;;;5034890;28;20449;-70
2023/07/05 03:51:12;;;;;;;0.80;0.80;;;16.70;99.90;;;;;;5034971;28;20406;-70
2023/07/05 03:53:38;;;;;;;1.43;1.33;;;16.80;99.90;;;;;;5035195;28;20813;-70
2023/07/05 03:56:07;;;;;;;1.00;0.97;;;16.70;99.90;;;;;;5035225;28;20770;-70
2023/07/05 03:58:34;;;;;;;0.47;0.47;;;16.70;99.90;;;;;;5034972;28;20397;-70
2023/07/05 04:01:15;;;;;;;0.40;0.40;;;16.80;99.90;;;;;;5034771;28;20413;-69
2023/07/05 04:03:49;;;;;;;1.77;1.67;;;16.80;99.90;;;;;;5034355;28;20402;-70
2023/07/05 04:06:16;;;;;;;0.40;0.40;;;16.90;99.90;;;;;;5034741;28;20405;-70
2023/07/05 04:08:42;;;;;;;1.13;1.00;;;16.70;99.90;;;;;;5034646;28;20445;-70
2023/07/05 04:11:08;;;;;;;0.83;0.83;;;16.60;99.90;;;;;;5034536;28;20528;-70
2023/07/05 04:13:34;;;;;;;1.33;1.23;;;16.60;99.90;;;;;;5034748;28;20203;-70
2023/07/05 04:16:08;;;;;;;1.43;1.00;;;16.60;99.90;;;;;;5034705;28;20418;-70
2023/07/05 04:18:34;;;;;;;1.53;1.43;;;16.60;99.90;;;;;;5034625;28;20398;-70
2023/07/05 04:21:00;;;;;;;0.60;0.60;;;16.60;99.90;;;;;;5034465;28;20768;-70
2023/07/05 04:23:26;;;;;;;0.83;0.83;;;16.60;99.90;;;;;;5034630;28;20410;-70
2023/07/05 04:26:04;;;;;;;0.80;0.80;;;16.70;99.90;;;;;;5034453;28;20253;-70
2023/07/05 04:28:30;;;;;;;1.47;0.93;;;16.80;99.90;;;;;;5034409;28;20944;-70
2023/07/05 04:30:57;;;;;;;1.10;1.10;;;16.80;99.90;;;;;;5034333;28;20418;-70
2023/07/05 04:33:23;;;;;;;1.37;1.07;;;16.80;99.90;;;;;;5034415;28;20407;-70
2023/07/05 04:35:50;;;;;;;1.13;0.80;;;16.70;99.90;;;;;;5034155;28;20498;-70
2023/07/05 04:38:16;;;;;;;1.40;1.23;;;16.90;99.90;;;;;;5034282;28;20425;-71
2023/07/05 04:40:42;;;;;;;3.20;1.50;;;16.90;99.90;;;;;;5034386;28;20501;-70
2023/07/05 04:43:08;;;;;;;0.53;0.53;;;16.90;99.90;;;;;;5033864;28;20405;-70
2023/07/05 04:45:33;;;;;;;1.03;0.90;;;16.90;99.90;;;;;;5032988;28;20421;-70
2023/07/05 04:47:59;;;;;;;1.03;1.03;;;16.90;99.90;;;;;;5034073;28;20603;-70
2023/07/05 04:50:25;;;;;;;1.60;1.50;;;16.90;99.90;;;;;;5034122;28;20207;-69
2023/07/05 04:52:51;;;;;;;1.53;0.80;;;16.90;99.90;;;;;;5033778;28;20175;-70
2023/07/05 04:55:16;;;;;;;0.53;0.53;;;16.90;99.90;;;;;;5033979;28;20254;-70
2023/07/05 04:57:42;;;;;;;0.80;0.60;;;16.90;99.90;;;;;;5033794;28;20426;-69
2023/07/05 05:00:09;;;;;;;1.37;1.37;;;16.90;99.90;;;;;;5034037;28;20253;-70
2023/07/05 05:02:35;;;;;;;0.87;0.70;;;17.00;99.90;;;;;;5033590;28;20185;-70
2023/07/05 05:05:02;;;;;;;1.03;0.63;;;17.00;99.90;;;;;;5033588;28;20433;-70
2023/07/05 05:07:27;;;;;;;0.60;0.60;;;17.10;99.90;;;;;;5033674;28;20195;-69
2023/07/05 05:09:53;;;;;;;0.50;0.50;;;17.20;99.90;;;;;;5033801;28;20457;-70
2023/07/05 05:12:18;;;;;;;1.20;1.13;;;17.30;99.90;;;;;;5033473;28;20558;-69
2023/07/05 05:14:44;;;;;;;0.50;0.40;;;17.40;99.90;;;;;;5033786;28;20171;-70
2023/07/05 05:17:10;;;;;;;0.60;0.60;;;17.40;99.90;;;;;;5033404;28;20187;-69
2023/07/05 05:19:35;;;;;;;1.03;1.03;;;17.30;99.90;;;;;;5033798;28;20197;-71
2023/07/05 05:22:01;;;;;;;1.20;0.57;;;17.20;99.90;;;;;;5033363;28;20175;-69
2023/07/05 05:24:27;;;;;;;0.57;0.57;;;17.10;99.90;;;;;;5033510;28;20186;-70
2023/07/05 05:26:54;;;;;;;2.00;1.90;;;17.20;99.90;;;;;;5033437;28;20195;-71
2023/07/05 05:29:20;;;;;;;1.47;1.13;;;17.30;99.90;;;;;;5032231;28;20654;-70
2023/07/05 05:31:47;;;;;;;19.53;1.03;;;17.40;99.90;;;;;;5033289;28;20413;-70
2023/07/05 05:34:12;;;;;;;2.00;1.03;;;17.50;99.90;;;;;;5033427;28;20196;-69
2023/07/05 05:36:38;;;;;;;2.00;0.97;;;17.50;99.90;;;;;;5033393;28;20870;-70
2023/07/05 05:39:03;;;;;;;0.73;0.73;;;17.40;99.90;;;;;;5033546;28;20179;-70
2023/07/05 05:41:29;;;;;;;1.10;1.00;;;17.10;99.90;;;;;;5033138;28;20179;-70
2023/07/05 05:43:55;;;;;;;1.17;1.07;;;17.10;99.90;;;;;;5033415;28;20190;-69
2023/07/05 05:46:20;;;;;;;0.67;0.67;;;17.10;99.90;;;;;;5032892;28;20195;-70
2023/07/05 05:48:46;;;;;;;0.60;0.60;;;17.20;99.90;;;;;;5033132;28;20195;-70
2023/07/05 05:51:12;;;;;;;0.93;0.73;;;17.20;99.90;;;;;;5033501;28;20206;-69
2023/07/05 05:53:37;;;;;;;0.53;0.53;;;17.20;99.90;;;;;;5033582;28;20170;-70
2023/07/05 05:56:03;;;;;;;1.00;1.00;;;17.30;99.90;;;;;;5033274;28;20217;-69
2023/07/05 05:58:29;;;;;;;1.40;1.30;;;17.40;99.90;;;;;;5033110;28;20198;-70
2023/07/05 06:00:54;;;;;;;0.67;0.67;;;17.40;99.90;;;;;;5033068;28;20186;-70
2023/07/05 06:03:20;;;;;;;0.93;0.70;;;17.50;99.90;;;;;;5032896;28;20174;-70
2023/07/05 06:05:45;;;;;;;0.50;0.50;;;17.50;99.90;;;;;;5033131;28;20177;-70
2023/07/05 06:08:11;;;;;;;0.57;0.57;;;17.50;99.90;;;;;;5032985;28;20249;-70
2023/07/05 06:10:37;;;;;;;2.43;1.53;;;17.60;99.90;;;;;;5033273;28;20205;-71
2023/07/05 06:13:02;;;;;;;0.73;0.73;;;17.70;99.90;;;;;;5032772;28;20201;-69
2023/07/05 06:15:28;;;;;;;0.50;0.50;;;17.60;99.90;;;;;;5033168;28;20178;-70
2023/07/05 06:17:54;;;;;;;1.27;1.07;;;17.50;99.90;;;;;;5032881;28;20589;-71
2023/07/05 06:20:23;;;;;;;0.60;0.60;;;17.30;99.90;;;;;;5033371;28;20167;-70
2023/07/05 06:22:48;;;;;;;0.77;0.77;;;17.30;99.90;;;;;;5032841;28;20401;-70
2023/07/05 06:25:14;;;;;;;0.50;0.50;;;17.20;99.90;;;;;;5033067;28;20488;-70
2023/07/05 06:27:40;;;;;;;0.50;0.50;;;17.10;99.90;;;;;;5035431;28;20649;-70
2023/07/05 06:30:06;;;;;;;0.53;0.53;;;17.20;99.90;;;;;;5036585;28;20193;-69
2023/07/05 06:32:32;;;;;;;1.27;1.17;;;17.20;99.90;;;;;;5036676;28;20531;-70
2023/07/05 06:34:58;;;;;;;0.67;0.63;;;17.20;99.90;;;;;;5036899;28;20488;-71
2023/07/05 06:37:24;;;;;;;0.50;0.50;;;17.20;99.90;;;;;;5036347;28;20642;-71
2023/07/05 06:39:50;;;;;;;0.97;0.50;;;17.20;99.90;;;;;;5036563;28;20463;-70
2023/07/05 06:42:15;;;;;;;0.40;0.40;;;17.10;99.90;;;;;;5036251;28;20202;-70
2023/07/05 06:44:41;;;;;;;1.33;1.23;;;17.10;99.90;;;;;;5036458;28;20262;-71
2023/07/05 06:47:07;;;;;;;0.30;0.30;;;17.10;99.90;;;;;;5035776;28;20210;-70
2023/07/05 06:49:32;;;;;;;0.83;0.83;;;17.00;99.90;;;;;;5036223;28;20240;-70
2023/07/05 06:51:58;;;;;;;1.07;1.07;;;17.20;99.90;;;;;;5036019;28;20597;-70
2023/07/05 06:54:25;;;;;;;1.50;1.37;;;17.30;99.90;;;;;;5035958;28;20516;-67
2023/07/05 06:56:51;;;;;;;0.60;0.50;;;17.50;99.90;;;;;;5036858;28;20555;-67
2023/07/05 06:59:17;;;;;;;0.50;0.50;;;17.60;99.90;;;;;;5036421;28;20757;-69
2023/07/05 07:01:43;;;;;;;1.10;0.80;;;17.80;99.90;;;;;;5036225;28;20407;-66
2023/07/05 07:04:09;;;;;;;1.13;1.13;;;18.10;99.90;;;;;;5036159;28;20596;-71
2023/07/05 07:06:35;;;;;;;0.77;0.60;;;18.30;99.90;;;;;;5034617;28;20428;-71
2023/07/05 07:09:05;;;;;;;0.93;0.60;;;18.40;99.90;;;;;;5034488;28;20445;-71
2023/07/05 07:11:31;;;;;;;1.90;0.70;;;18.30;99.90;;;;;;5034341;28;20320;-70
2023/07/05 07:13:57;;;;;;;0.50;0.50;;;18.30;99.90;;;;;;5034128;28;20432;-71
2023/07/05 07:16:23;;;;;;;0.30;0.30;;;18.50;99.90;;;;;;5034313;28;20493;-70
2023/07/05 07:18:50;;;;;;;0.30;0.30;;;18.40;99.90;;;;;;5033474;28;20242;-71
2023/07/05 07:21:18;;;;;;;0.30;0.30;;;18.30;99.90;;;;;;5034258;28;20177;-70
2023/07/05 07:23:48;;;;;;;0.30;0.30;;;18.40;99.90;;;;;;5034294;28;20515;-71
2023/07/05 07:26:18;;;;;;;0.30;0.30;;;19.10;99.90;;;;;;5035402;28;20414;-71
2023/07/05 07:28:49;;;;;;;0.30;0.30;;;19.20;99.90;;;;;;5035549;28;20409;-69
2023/07/05 07:31:20;;;;;;;0.70;0.57;;;19.40;99.90;;;;;;5035591;28;20409;-70
2023/07/05 07:33:47;;;;;;;0.70;0.70;;;19.40;99.90;;;;;;5035894;28;20413;-71
2023/07/05 07:36:15;;;;;;;0.60;0.60;;;19.20;99.90;;;;;;5035481;28;20417;-71
2023/07/05 07:38:42;;;;;;;0.63;0.63;;;19.20;99.90;;;;;;5034924;28;20439;-70
2023/07/05 07:41:16;;;;;;;0.40;0.40;;;18.90;99.90;;;;;;5035162;28;20433;-70
2023/07/05 07:43:42;;;;;;;0.40;0.40;;;18.70;99.90;;;;;;5035522;28;20404;-69
2023/07/05 07:46:13;;;;;;;0.50;0.40;;;18.40;99.90;;;;;;5035312;28;20526;-70
2023/07/05 07:48:40;;;;;;;0.30;0.30;;;18.20;99.90;;;;;;5035616;28;20159;-71
2023/07/05 07:51:06;;;;;;;0.40;0.40;;;18.20;99.90;;;;;;5035035;28;20486;-70
2023/07/05 07:53:32;;;;;;;0.40;0.40;;;18.30;99.90;;;;;;5034985;28;20486;-71
2023/07/05 07:55:58;;;;;;;0.43;0.43;;;18.50;99.90;;;;;;5035151;28;20480;-70
2023/07/05 07:58:24;;;;;;;2.43;0.90;;;18.50;99.90;;;;;;5035268;28;20198;-70
2023/07/05 08:00:51;;;;;;;0.60;0.60;;;18.40;99.90;;;;;;5034963;28;20449;-69
2023/07/05 08:03:17;;;;;;;0.40;0.40;;;18.10;99.90;;;;;;5035253;28;20475;-69
2023/07/05 08:05:42;;;;;;;0.80;0.80;;;18.00;99.90;;;;;;5034998;28;20167;-69
2023/07/05 08:08:08;;;;;;;0.30;0.30;;;18.10;99.90;;;;;;5034491;28;20205;-71
2023/07/05 08:10:34;;;;;;;0.40;0.40;;;18.60;99.90;;;;;;5034616;28;20488;-70
2023/07/05 08:12:59;;;;;;;0.30;0.30;;;19.40;99.90;;;;;;5034190;28;20171;-70
2023/07/05 08:15:25;;;;;;;0.30;0.30;;;19.80;99.90;;;;;;5034752;28;20213;-70
2023/07/05 08:17:50;;;;;;;0.40;0.40;;;20.10;99.90;;;;;;5034715;28;20191;-69
2023/07/05 08:20:16;;;;;;;0.50;0.50;;;20.30;99.30;;;;;;5034436;28;20556;-70
2023/07/05 08:22:43;;;;;;;0.30;0.30;;;20.20;97.90;;;;;;5034216;28;20180;-70
2023/07/05 08:25:09;;;;;;;0.30;0.30;;;20.10;99.00;;;;;;5034409;28;20182;-70
2023/07/05 08:27:34;;;;;;;0.40;0.40;;;20.00;99.10;;;;;;5034389;28;20425;-71
2023/07/05 08:30:00;;;;;;;0.80;0.60;;;19.80;98.10;;;;;;5034342;28;20203;-70
2023/07/05 08:32:26;;;;;;;0.43;0.40;;;19.70;99.70;;;;;;5034134;28;20340;-71
2023/07/05 08:34:51;;;;;;;0.50;0.40;;;19.50;99.60;;;;;;5034236;28;20185;-71
2023/07/05 08:37:17;;;;;;;0.40;0.40;;;19.10;99.90;;;;;;5034075;28;20206;-70
2023/07/05 08:39:43;;;;;;;0.47;0.40;;;19.00;99.80;;;;;;5034197;28;20261;-71
2023/07/05 08:42:38;;;;;;;1.07;0.70;;;18.80;99.70;;;;;;5033894;28;20183;-69
2023/07/05 08:45:25;;;;;;;0.40;0.40;;;18.80;99.50;;;;;;5032695;28;20221;-70
2023/07/05 08:47:55;;;;;;;2.53;1.10;;;18.80;99.70;;;;;;5032657;28;20904;-71
2023/07/05 08:50:41;;;;;;;0.40;0.40;;;19.10;99.90;;;;;;5033893;28;20876;-70
2023/07/05 08:53:18;;;;;;;0.30;0.30;;;19.30;99.90;;;;;;5033864;28;20811;-71
2023/07/05 08:56:15;;;;;;;1.23;1.23;;;19.10;98.40;;;;;;5034111;28;20463;-70
2023/07/05 08:58:56;;;;;;;2.03;0.50;;;18.90;98.80;;;;;;5033887;28;20748;-70
2023/07/05 09:01:28;;;;;;;0.83;0.83;;;18.80;99.90;;;;;;5033806;28;20404;-71
2023/07/05 09:03:56;;;;;;;0.87;0.87;;;18.80;99.50;;;;;;5033998;28;20407;-71
2023/07/05 09:06:54;;;;;;;0.53;0.53;;;19.00;99.90;;;;;;5033766;28;20745;-70
2023/07/05 09:09:45;;;;;;;0.60;0.60;;;18.80;99.90;;;;;;5031536;28;20518;-70
2023/07/05 09:12:21;;;;;;;0.73;0.73;;;18.50;99.90;;;;;;5033474;28;20416;-71
2023/07/05 09:15:18;;;;;;;1.47;1.37;;;18.60;99.90;;;;;;5033608;28;20401;-71
2023/07/05 09:17:51;;;;;;;2.20;1.80;;;19.20;99.80;;;;;;5033473;28;20463;-70
2023/07/05 09:21:00;;;;;;;0.50;0.50;;;20.00;99.20;;;;;;5033773;28;20419;-71
2023/07/05 09:23:44;;;;;;;0.50;0.50;;;20.50;98.70;;;;;;5005143;28;20954;-71
2023/07/05 09:26:30;;;;;;;0.70;0.70;;;21.40;93.90;;;;;;5033580;28;20446;-70
2023/07/05 09:29:18;;;;;;;0.60;0.60;;;21.20;94.20;;;;;;5033582;28;20511;-70
2023/07/05 09:31:46;;;;;;;4.23;1.00;;;21.60;94.80;;;;;;5033459;28;20439;-70
2023/07/05 09:34:14;;;;;;;0.93;0.93;;;21.70;93.10;;;;;;5033357;28;20432;-70
2023/07/05 09:36:42;;;;;;;1.00;1.00;;;22.00;94.40;;;;;;5033318;28;20516;-71
2023/07/05 09:39:41;;;;;;;0.93;0.80;;;21.70;94.10;;;;;;5033375;28;20439;-71
2023/07/05 09:42:16;;;;;;;4.63;1.17;;;20.80;92.90;;;;;;5033078;28;20469;-70
2023/07/05 09:44:42;;;;;;;0.83;0.80;;;20.20;94.90;;;;;;5033379;28;20398;-70
2023/07/05 09:47:08;;;;;;;1.60;1.50;;;20.00;97.00;;;;;;5033022;28;20481;-71
2023/07/05 09:49:34;;;;;;;0.50;0.50;;;20.00;97.10;;;;;;5033175;28;20199;-71
2023/07/05 09:52:00;;;;;;;0.97;0.60;;;19.90;96.90;;;;;;5033003;28;20414;-70
2023/07/05 09:54:31;;;;;;;1.50;1.00;;;20.00;96.60;;;;;;5033407;28;20523;-71
2023/07/05 09:57:04;;;;;;;2.20;2.00;;;20.10;95.90;;;;;;5033049;28;20435;-71
2023/07/05 09:59:31;;;;;;;1.40;1.30;;;20.20;96.80;;;;;;5033487;28;20874;-71
2023/07/05 10:02:19;;;;;;;0.97;0.60;;;20.40;95.80;;;;;;5034529;28;20410;-71
2023/07/05 10:04:53;;;;;;;0.50;0.50;;;20.50;95.60;;;;;;5037195;28;20421;-71
2023/07/05 10:07:23;;;;;;;0.67;0.50;;;20.30;96.00;;;;;;5036923;28;20510;-71
2023/07/05 10:09:59;;;;;;;0.97;0.50;;;20.00;96.10;;;;;;5035560;28;20453;-71
2023/07/05 10:12:37;;;;;;;0.40;0.40;;;19.80;96.00;;;;;;5036790;28;20516;-71
2023/07/05 10:15:21;;;;;;;0.30;0.30;;;19.80;97.00;;;;;;5037017;28;20421;-71
2023/07/05 10:17:48;;;;;;;0.83;0.83;;;20.00;95.30;;;;;;5036963;28;20512;-71
2023/07/05 10:20:23;;;;;;;1.27;1.27;;;20.20;94.40;;;;;;5036981;28;20961;-70
2023/07/05 10:22:58;;;;;;;1.57;1.47;;;20.30;97.40;;;;;;5036670;28;20505;-71
2023/07/05 10:25:23;;;;;;;1.57;0.90;;;21.00;97.00;;;;;;5036818;28;20403;-70
2023/07/05 10:27:50;;;;;;;1.30;1.20;;;21.70;94.00;;;;;;5036869;28;21006;-71
2023/07/05 10:30:19;;;;;;;0.77;0.77;;;21.80;93.60;;;;;;5036713;28;20202;-70
2023/07/05 10:32:50;;;;;;;0.90;0.70;;;21.80;94.00;;;;;;5036540;28;20492;-71
2023/07/05 10:35:23;;;;;;;0.80;0.80;;;22.10;91.70;;;;;;5036795;28;20437;-70
2023/07/05 10:37:50;;;;;;;0.70;0.63;;;23.10;91.30;;;;;;5036349;28;21015;-71
2023/07/05 10:40:16;;;;;;;0.83;0.83;;;23.90;90.10;;;;;;5036402;28;20437;-71
2023/07/05 10:42:49;;;;;;;1.07;0.80;;;24.40;87.90;;;;;;5036183;28;20417;-71
2023/07/05 10:45:17;;;;;;;1.97;1.40;;;24.20;90.00;;;;;;5036622;28;20889;-71
2023/07/05 10:47:46;;;;;;;1.47;1.07;;;24.30;90.00;;;;;;5036326;28;20931;-70
2023/07/05 10:50:15;;;;;;;1.10;1.03;;;24.40;85.50;;;;;;5036130;28;20555;-71
2023/07/05 10:52:50;;;;;;;1.83;1.73;;;24.60;82.40;;;;;;5036052;28;20416;-71
2023/07/05 10:55:33;;;;;;;2.30;1.30;;;24.00;88.70;;;;;;5036199;28;20438;-71
2023/07/05 10:58:18;;;;;;;2.60;1.67;;;23.70;84.60;;;;;;5036026;28;20437;-71
2023/07/05 11:01:22;;;;;;;1.23;0.77;;;23.50;84.70;;;;;;5036260;28;20408;-71
2023/07/05 11:04:12;;;;;;;2.00;1.40;;;23.60;82.80;;;;;;5036207;28;20424;-71
2023/07/05 11:06:40;;;;;;;2.00;1.60;;;23.30;85.80;;;;;;5027796;28;20470;-70
2023/07/05 11:09:10;;;;;;;2.00;0.90;;;23.20;88.30;;;;;;5035709;28;20511;-71
2023/07/05 11:11:41;;;;;;;1.10;0.90;;;23.30;90.20;;;;;;5035807;28;20401;-70
2023/07/05 11:14:13;;;;;;;0.77;0.77;;;23.20;90.50;;;;;;5035716;28;20436;-70
2023/07/05 11:16:42;;;;;;;1.17;1.07;;;23.10;90.00;;;;;;5035786;28;20436;-71
2023/07/05 11:19:13;;;;;;;1.67;1.27;;;23.00;89.80;;;;;;5035675;28;20923;-71
2023/07/05 11:21:47;;;;;;;1.33;1.23;;;23.00;89.20;;;;;;5035577;28;20408;-72
2023/07/05 11:24:33;;;;;;;0.80;0.80;;;22.70;85.90;;;;;;5035814;28;20409;-70
2023/07/05 11:27:00;;;;;;;0.87;0.70;;;22.70;85.10;;;;;;5035318;28;20516;-71
2023/07/05 11:29:32;;;;;;;1.53;1.43;;;22.80;91.00;;;;;;5035534;28;20460;-72
2023/07/05 11:32:05;;;;;;;1.10;0.90;;;22.80;88.60;;;;;;5035292;28;20441;-71
2023/07/05 11:34:39;;;;;;;1.53;1.03;;;22.60;82.70;;;;;;5035611;28;20447;-70
2023/07/05 11:37:05;;;;;;;1.63;0.83;;;22.10;88.20;;;;;;5035387;28;20403;-71
2023/07/05 11:39:34;;;;;;;0.67;0.67;;;21.90;90.40;;;;;;5035300;28;20501;-71
2023/07/05 11:42:14;;;;;;;1.60;1.50;;;21.90;83.50;;;;;;5035208;28;20175;-71
2023/07/05 11:44:45;;;;;;;2.67;1.53;;;22.10;90.30;;;;;;5035168;28;20419;-71
2023/07/05 11:47:34;;;;;;;2.20;2.00;;;21.90;87.70;;;;;;5035053;28;20462;-70
2023/07/05 11:50:10;;;;;;;1.70;1.60;;;22.10;86.60;;;;;;5035038;28;20470;-71
2023/07/05 11:53:00;;;;;;;0.90;0.90;;;22.00;80.70;;;;;;5034876;28;20776;-70
2023/07/05 11:55:33;;;;;;;0.87;0.60;;;21.90;77.20;;;;;;5035051;28;20408;-70
2023/07/05 11:58:26;;;;;;;0.83;0.80;;;21.70;79.60;;;;;;5035256;28;20412;-71
2023/07/05 12:00:58;;;;;;;1.17;1.07;;;21.70;81.20;;;;;;5034800;28;20413;-71
2023/07/05 12:03:28;;;;;;;0.50;0.50;;;21.60;81.80;;;;;;5034792;28;20534;-70
2023/07/05 12:06:03;;;;;;;1.87;1.77;;;21.50;77.10;;;;;;5034764;28;20416;-71
2023/07/05 12:08:39;;;;;;;1.10;1.00;;;21.60;79.30;;;;;;5034670;28;20519;-71
2023/07/05 12:11:05;;;;;;;1.00;1.00;;;21.60;83.30;;;;;;5034760;28;20419;-71
2023/07/05 12:13:35;;;;;;;0.90;0.50;;;21.70;79.50;;;;;;5034611;28;20456;-71
2023/07/05 12:16:04;;;;;;;1.03;0.97;;;21.80;75.40;;;;;;5035274;28;20625;-71
2023/07/05 12:18:31;;;;;;;1.47;0.70;;;22.00;78.10;;;;;;5034496;28;20490;-70
2023/07/05 12:21:02;;;;;;;1.03;0.80;;;22.00;77.40;;;;;;5034313;28;20426;-71
2023/07/05 12:23:28;;;;;;;1.07;0.90;;;22.00;83.90;;;;;;5034666;28;20475;-70
2023/07/05 12:25:57;;;;;;;1.07;0.73;;;21.90;77.50;;;;;;5033928;28;20412;-71
2023/07/05 12:28:25;;;;;;;3.13;0.90;;;21.80;74.40;;;;;;5034264;28;20480;-71
2023/07/05 12:31:06;;;;;;;1.60;1.50;;;21.10;73.80;;;;;;5034168;28;20904;-71
2023/07/05 12:33:35;;;;;;;3.30;1.20;;;21.10;78.50;;;;;;5032850;28;20837;-70
2023/07/05 12:36:08;;;;;;;1.20;0.67;;;21.10;82.50;;;;;;5034325;28;20476;-71
2023/07/05 12:38:35;;;;;;;0.70;0.70;;;21.10;74.90;;;;;;5032838;28;20954;-71
2023/07/05 12:41:02;;;;;;;0.60;0.60;;;21.00;79.50;;;;;;5034011;28;20879;-71
2023/07/05 12:43:29;;;;;;;1.03;0.87;;;21.10;78.60;;;;;;5034146;28;20767;-70
2023/07/05 12:46:06;;;;;;;1.27;1.17;;;21.20;78.40;;;;;;5033935;28;20912;-71
2023/07/05 12:48:32;;;;;;;1.10;1.10;;;21.30;76.20;;;;;;5033945;28;20438;-70
2023/07/05 12:51:19;;;;;;;1.37;1.10;;;21.20;80.00;;;;;;5033681;28;20489;-71
2023/07/05 12:53:46;;;;;;;3.03;0.77;;;21.20;77.00;;;;;;5034185;28;20405;-71
2023/07/05 12:56:18;;;;;;;0.80;0.67;;;21.50;93.60;;;;;;5033984;28;20418;-71
2023/07/05 12:58:47;;;;;;;1.60;1.50;;;21.30;77.60;;;;;;5034092;28;20437;-70
2023/07/05 13:01:16;;;;;;;1.33;1.23;;;21.30;73.70;;;;;;5033825;28;20436;-71
2023/07/05 13:03:46;;;;;;;3.10;0.90;;;21.30;65.60;;;;;;5033905;28;20535;-71